Cape Town International Airport (CPT/FACT)




Flight Aircraft Arriving
CPX868 B763
GOBD - Blaise Diagne International Airport
Senegal Dakar, Senegal
Flight Aircraft Departing
CPX867 B763
GOBD - Blaise Diagne International Airport
Senegal Dakar, Senegal
Airport Information
Location: Cape Town, ZA
Coordinates: -33.9714 / 18.6043
Elevation:
Time Offset:
Local Time:
UTC Time:
Jet A Price: $0.89/lbs

Current Weather
METAR: FACT 050731Z 34010KT 310V010 9999 SCT015 BKN035 18/17 Q1013 NOSIG
TAF: TAF FACT 050209Z 0500/0606 35008KT 0500 FG NSC TX21/0512Z TN13/0505Z BECMG 0503/0505 3000 BR BECMG 0506/0508 9999 SCT020 BECMG 0515/0517 24010KT PROB30 TEMPO 0516/0518 4000 -RA BKN010

Recent Arrivals
Date Flight Type Depart
12/28/2019 CPX867 B763 Blaise Diagne International Airport (GOBD)
12/18/2019 CPX867 B763 Blaise Diagne International Airport (GOBD)
09/29/2019 CPX767 B763 Blaise Diagne International Airport (GOBD)
Recent Departures
Date Flight Type Arrive
12/29/2019 CPX868 B763 Blaise Diagne International Airport (GOBD)
12/19/2019 CPX868 B763 Blaise Diagne International Airport (GOBD)
10/21/2019 CPX768 B763 Blaise Diagne International Airport (GOBD)